createdAt,value
2022-08-22T00:00:42.878Z,17.45
2022-08-22T00:01:39.902Z,17.45
2022-08-22T00:02:39.940Z,17.45
2022-08-22T00:02:58.606Z,18.58
2022-08-22T00:02:59.527Z,19.37
2022-08-22T00:03:00.571Z,21.93
2022-08-22T00:03:01.015Z,19.08
2022-08-22T00:03:39.874Z,17.49
2022-08-22T00:04:39.872Z,17.49
2022-08-22T00:05:39.855Z,17.49
2022-08-22T00:06:39.865Z,17.49
2022-08-22T00:07:39.834Z,17.48
2022-08-22T00:08:39.825Z,17.48
2022-08-22T00:09:39.805Z,17.48
2022-08-22T00:10:39.804Z,17.49
2022-08-22T00:11:39.785Z,17.52
2022-08-22T00:12:39.805Z,17.59
2022-08-22T00:13:39.765Z,17.63
2022-08-22T00:14:39.755Z,17.67
2022-08-22T00:15:43.416Z,17.67
2022-08-22T00:16:39.735Z,17.68
2022-08-22T00:17:39.765Z,17.72
2022-08-22T00:18:39.705Z,17.80
2022-08-22T00:19:39.695Z,17.83
2022-08-22T00:20:39.686Z,17.85
2022-08-22T00:21:39.676Z,17.82
2022-08-22T00:22:39.663Z,17.85
2022-08-22T00:23:39.667Z,17.86
2022-08-22T00:24:39.644Z,17.87
2022-08-22T00:25:39.627Z,17.87
2022-08-22T00:26:44.647Z,17.87
2022-08-22T00:27:45.165Z,17.86
2022-08-22T00:28:39.598Z,17.86
2022-08-22T00:29:39.625Z,17.89
2022-08-22T00:30:39.578Z,17.90
2022-08-22T00:31:39.564Z,17.90
2022-08-22T00:32:39.548Z,17.87
2022-08-22T00:33:39.536Z,17.85
2022-08-22T00:34:39.547Z,17.82
2022-08-22T00:35:43.018Z,17.82
2022-08-22T00:36:40.506Z,17.83
2022-08-22T00:37:39.490Z,17.82
2022-08-22T00:38:39.479Z,17.78
2022-08-22T00:39:39.538Z,17.76
2022-08-22T00:40:39.487Z,17.72
2022-08-22T00:41:39.447Z,17.71
2022-08-22T00:42:39.439Z,17.68
2022-08-22T00:43:39.418Z,17.70
2022-08-22T00:44:39.428Z,17.70
2022-08-22T00:45:39.400Z,17.68
2022-08-22T00:46:39.419Z,17.64
2022-08-22T00:47:39.378Z,17.63
2022-08-22T00:48:39.371Z,17.63
2022-08-22T00:49:39.348Z,17.59
2022-08-22T00:50:39.347Z,17.57
2022-08-22T00:51:39.328Z,17.57
2022-08-22T00:52:39.348Z,17.56
2022-08-22T00:53:39.309Z,17.57
2022-08-22T00:54:39.303Z,17.56
2022-08-22T00:55:39.296Z,17.51
2022-08-22T00:56:39.279Z,17.49
2022-08-22T00:57:39.259Z,17.46
2022-08-22T00:58:39.277Z,17.42
2022-08-22T00:59:39.247Z,17.38
2022-08-22T01:00:39.229Z,17.33
2022-08-22T01:01:39.286Z,17.30
2022-08-22T01:02:39.209Z,17.29
2022-08-22T01:03:39.190Z,17.29
2022-08-22T01:04:39.211Z,17.27
2022-08-22T01:05:39.179Z,17.24
2022-08-22T01:06:39.162Z,17.23
2022-08-22T01:07:39.150Z,17.19
2022-08-22T01:08:39.161Z,17.19
2022-08-22T01:09:39.124Z,17.15
2022-08-22T01:10:39.130Z,17.15
2022-08-22T01:11:39.103Z,17.14
2022-08-22T01:12:39.100Z,17.14
2022-08-22T01:13:39.081Z,17.12
2022-08-22T01:14:39.071Z,17.09
2022-08-22T01:15:39.081Z,17.09
2022-08-22T01:16:39.052Z,17.12
2022-08-22T01:17:39.042Z,17.11
2022-08-22T01:18:39.031Z,17.09
2022-08-22T01:19:39.011Z,17.06
2022-08-22T01:20:39.021Z,17.04
2022-08-22T01:21:39.011Z,17.01
2022-08-22T01:22:38.981Z,17.04
2022-08-22T01:23:40.514Z,17.04
2022-08-22T01:24:38.953Z,17.06
2022-08-22T01:25:38.951Z,17.08
2022-08-22T01:26:38.941Z,17.09
2022-08-22T01:27:38.951Z,17.08
2022-08-22T01:28:38.913Z,17.08
2022-08-22T01:29:38.912Z,17.08
2022-08-22T01:30:38.891Z,17.08
2022-08-22T01:31:38.882Z,17.09
2022-08-22T01:32:38.872Z,17.05
2022-08-22T01:33:38.882Z,17.04
2022-08-22T01:34:38.843Z,16.99
2022-08-22T01:35:38.843Z,16.96
2022-08-22T01:36:38.823Z,16.93
2022-08-22T01:37:43.400Z,16.90
2022-08-22T01:38:39.824Z,16.87
2022-08-22T01:39:38.826Z,16.84
2022-08-22T01:40:53.365Z,16.79
2022-08-22T01:41:39.772Z,16.76
2022-08-22T01:42:38.753Z,16.74
2022-08-22T01:43:59.329Z,16.69
2022-08-22T01:44:39.744Z,16.65
2022-08-22T01:45:38.735Z,16.64
2022-08-22T01:46:38.703Z,16.58
2022-08-22T01:47:38.705Z,16.57
2022-08-22T01:48:38.685Z,16.54
2022-08-22T01:49:38.694Z,16.54
2022-08-22T01:50:38.674Z,16.51
2022-08-22T01:51:38.654Z,16.51
2022-08-22T01:52:38.646Z,16.47
2022-08-22T01:53:38.634Z,16.49
2022-08-22T01:54:38.623Z,16.49
2022-08-22T01:55:38.632Z,16.47
2022-08-22T01:56:38.595Z,16.43
2022-08-22T01:57:38.585Z,16.41
2022-08-22T01:58:38.584Z,16.35
2022-08-22T01:59:42.137Z,16.29
2022-08-22T02:00:38.545Z,16.24
2022-08-22T02:01:38.563Z,16.21
2022-08-22T02:02:38.525Z,16.17
2022-08-22T02:03:38.517Z,16.17
2022-08-22T02:04:38.505Z,16.17
2022-08-22T02:05:38.498Z,16.16
2022-08-22T02:06:38.485Z,16.16
2022-08-22T02:07:38.495Z,16.13
2022-08-22T02:08:38.465Z,16.12
2022-08-22T02:09:38.458Z,16.09
2022-08-22T02:10:38.436Z,16.09
2022-08-22T02:11:38.425Z,16.05
2022-08-22T02:12:38.406Z,16.04
2022-08-22T02:13:38.425Z,16.04
2022-08-22T02:14:38.397Z,16.05
2022-08-22T02:15:38.385Z,16.04
2022-08-22T02:16:38.372Z,16.02
2022-08-22T02:17:38.366Z,16.01
2022-08-22T02:18:38.366Z,16.02
2022-08-22T02:19:38.344Z,16.04
2022-08-22T02:20:38.316Z,16.05
2022-08-22T02:21:38.318Z,16.05
2022-08-22T02:22:44.371Z,16.02
2022-08-22T02:23:39.317Z,16.02
2022-08-22T02:24:38.286Z,16.04
2022-08-22T02:25:38.267Z,16.05
2022-08-22T02:26:38.256Z,16.08
2022-08-22T02:27:38.250Z,16.10
2022-08-22T02:28:38.227Z,16.13
2022-08-22T02:29:38.247Z,16.16
2022-08-22T02:30:38.207Z,16.20
2022-08-22T02:31:38.197Z,16.21
2022-08-22T02:32:38.187Z,16.23
2022-08-22T02:33:38.176Z,16.24
2022-08-22T02:34:38.185Z,16.23
2022-08-22T02:35:38.161Z,16.21
2022-08-22T02:36:38.147Z,16.20
2022-08-22T02:37:38.130Z,16.16
2022-08-22T02:38:38.122Z,16.15
2022-08-22T02:39:38.153Z,16.16
2022-08-22T02:40:38.129Z,16.15
2022-08-22T02:41:38.088Z,16.15
2022-08-22T02:42:38.077Z,16.16
2022-08-22T02:43:38.074Z,16.15
2022-08-22T02:44:38.048Z,16.13
2022-08-22T02:45:38.050Z,16.12
2022-08-22T02:46:38.049Z,16.13
2022-08-22T02:47:38.018Z,16.15
2022-08-22T02:48:38.023Z,16.17
2022-08-22T02:49:43.800Z,16.17
2022-08-22T02:50:38.978Z,16.17
2022-08-22T02:51:37.979Z,16.17
2022-08-22T02:52:37.988Z,16.15
2022-08-22T02:53:37.959Z,16.12
2022-08-22T02:54:37.939Z,16.13
2022-08-22T02:55:37.941Z,16.15
2022-08-22T02:56:37.918Z,16.16
2022-08-22T02:57:39.584Z,16.17
2022-08-22T02:58:37.922Z,16.17
2022-08-22T02:59:37.890Z,16.16
2022-08-22T03:00:37.940Z,16.13
2022-08-22T03:01:37.869Z,16.12
2022-08-22T03:02:37.849Z,16.09
2022-08-22T03:03:37.839Z,16.04
2022-08-22T03:04:37.841Z,16.02
2022-08-22T03:05:37.823Z,16.01
2022-08-22T03:06:37.800Z,16.02
2022-08-22T03:07:37.799Z,16.01
2022-08-22T03:08:37.782Z,16.02
2022-08-22T03:09:38.790Z,16.09
2022-08-22T03:10:37.760Z,16.12
2022-08-22T03:11:37.751Z,16.13
2022-08-22T03:12:37.741Z,16.15
2022-08-22T03:13:37.732Z,16.17
2022-08-22T03:14:37.720Z,16.21
2022-08-22T03:15:37.731Z,16.17
2022-08-22T03:16:37.691Z,16.17
2022-08-22T03:17:37.681Z,16.16
2022-08-22T03:18:37.672Z,16.15
2022-08-22T03:19:37.673Z,16.13
2022-08-22T03:20:37.652Z,16.08
2022-08-22T03:21:37.660Z,16.04
2022-08-22T03:22:37.630Z,16.01
2022-08-22T03:23:37.622Z,15.95
2022-08-22T03:24:37.601Z,15.90
2022-08-22T03:25:37.591Z,15.84
2022-08-22T03:26:37.581Z,15.79
2022-08-22T03:27:37.621Z,15.73
2022-08-22T03:28:37.562Z,15.70
2022-08-22T03:29:37.552Z,15.68
2022-08-22T03:30:37.541Z,15.65
2022-08-22T03:31:37.533Z,15.65
2022-08-22T03:32:37.512Z,15.59
2022-08-22T03:33:37.530Z,15.55
2022-08-22T03:34:37.492Z,15.52
2022-08-22T03:35:37.483Z,15.49
2022-08-22T03:36:37.483Z,15.51
2022-08-22T03:37:37.462Z,15.52
2022-08-22T03:38:37.452Z,15.58
2022-08-22T03:39:37.515Z,15.62
2022-08-22T03:40:37.422Z,15.62
2022-08-22T03:41:37.420Z,15.65
2022-08-22T03:42:37.402Z,15.64
2022-08-22T03:43:37.392Z,15.64
2022-08-22T03:44:37.380Z,15.65
2022-08-22T03:45:37.392Z,15.64
2022-08-22T03:46:37.353Z,15.67
2022-08-22T03:47:37.363Z,15.67
2022-08-22T03:48:37.333Z,15.67
2022-08-22T03:49:37.324Z,15.65
2022-08-22T03:50:37.341Z,15.67
2022-08-22T03:51:37.304Z,15.65
2022-08-22T03:52:37.292Z,15.62
2022-08-22T03:53:37.284Z,15.62
2022-08-22T03:54:37.264Z,15.61
2022-08-22T03:55:37.253Z,15.59
2022-08-22T03:56:37.265Z,15.59
2022-08-22T03:57:37.234Z,15.58
2022-08-22T03:58:37.224Z,15.57
2022-08-22T03:59:37.214Z,15.58
2022-08-22T04:00:38.235Z,15.55
2022-08-22T04:01:37.184Z,15.54
2022-08-22T04:02:43.306Z,15.54
2022-08-22T04:03:38.164Z,15.55
2022-08-22T04:04:37.154Z,15.54
2022-08-22T04:05:37.144Z,15.55
2022-08-22T04:06:37.132Z,15.55
2022-08-22T04:07:37.124Z,15.57
2022-08-22T04:08:37.124Z,15.57
2022-08-22T04:09:38.105Z,15.57
2022-08-22T04:10:37.084Z,15.58
2022-08-22T04:11:37.084Z,15.62
2022-08-22T04:12:37.065Z,15.62
2022-08-22T04:13:37.075Z,15.61
2022-08-22T04:14:37.044Z,15.61
2022-08-22T04:15:37.034Z,15.59
2022-08-22T04:16:37.024Z,15.61
2022-08-22T04:17:37.018Z,15.61
2022-08-22T04:18:36.996Z,15.61
2022-08-22T04:19:37.005Z,15.61
2022-08-22T04:20:36.984Z,15.61
2022-08-22T04:21:36.966Z,15.58
2022-08-22T04:22:36.955Z,15.55
2022-08-22T04:23:36.946Z,15.52
2022-08-22T04:24:36.938Z,15.52
2022-08-22T04:25:36.945Z,15.52
2022-08-22T04:26:36.905Z,15.47
2022-08-22T04:27:36.905Z,15.46
2022-08-22T04:28:36.885Z,15.46
2022-08-22T04:29:36.877Z,15.47
2022-08-22T04:30:36.866Z,15.46
2022-08-22T04:31:36.904Z,15.49
2022-08-22T04:32:36.836Z,15.51
2022-08-22T04:33:36.837Z,15.49
2022-08-22T04:34:36.828Z,15.49
2022-08-22T04:35:36.807Z,15.49
2022-08-22T04:36:36.797Z,15.44
2022-08-22T04:37:36.806Z,15.42
2022-08-22T04:38:36.775Z,15.37
2022-08-22T04:39:36.798Z,15.35
2022-08-22T04:40:36.747Z,15.27
2022-08-22T04:41:36.748Z,15.24
2022-08-22T04:42:36.754Z,15.19
2022-08-22T04:43:36.717Z,15.18
2022-08-22T04:44:36.707Z,15.18
2022-08-22T04:45:36.697Z,15.14
2022-08-22T04:46:37.262Z,15.11
2022-08-22T04:47:36.677Z,15.09
2022-08-22T04:48:36.677Z,15.09
2022-08-22T04:49:36.657Z,15.10
2022-08-22T04:50:38.976Z,15.11
2022-08-22T04:51:37.648Z,15.14
2022-08-22T04:52:36.634Z,15.14
2022-08-22T04:53:36.640Z,15.14
2022-08-22T04:54:36.598Z,15.17
2022-08-22T04:55:36.587Z,15.17
2022-08-22T04:56:36.569Z,15.17
2022-08-22T04:57:36.566Z,15.19
2022-08-22T04:58:36.551Z,15.21
2022-08-22T04:59:36.558Z,15.22
2022-08-22T05:00:36.540Z,15.27
2022-08-22T05:01:36.553Z,15.33
2022-08-22T05:02:36.506Z,15.36
2022-08-22T05:03:36.507Z,15.40
2022-08-22T05:04:36.478Z,15.43
2022-08-22T05:05:36.497Z,15.46
2022-08-22T05:06:36.458Z,15.51
2022-08-22T05:07:36.467Z,15.54
2022-08-22T05:08:36.438Z,15.57
2022-08-22T05:09:36.428Z,15.58
2022-08-22T05:10:36.416Z,15.59
2022-08-22T05:11:36.421Z,15.58
2022-08-22T05:12:36.400Z,15.58
2022-08-22T05:13:36.388Z,15.59
2022-08-22T05:14:36.380Z,15.57
2022-08-22T05:15:36.359Z,15.57
2022-08-22T05:16:36.369Z,15.54
2022-08-22T05:17:36.339Z,15.54
2022-08-22T05:18:36.329Z,15.55
2022-08-22T05:19:36.319Z,15.57
2022-08-22T05:20:36.304Z,15.58
2022-08-22T05:21:36.297Z,15.61
2022-08-22T05:22:36.299Z,15.65
2022-08-22T05:23:36.278Z,15.68
2022-08-22T05:24:36.267Z,15.73
2022-08-22T05:25:36.434Z,15.73
2022-08-22T05:26:36.241Z,15.76
2022-08-22T05:27:36.250Z,15.80
2022-08-22T05:28:36.220Z,15.80
2022-08-22T05:29:36.200Z,15.86
2022-08-22T05:30:36.192Z,15.88
2022-08-22T05:31:36.188Z,15.88
2022-08-22T05:32:36.186Z,15.92
2022-08-22T05:33:36.212Z,15.94
2022-08-22T05:34:36.149Z,15.95
2022-08-22T05:35:36.155Z,15.98
2022-08-22T05:36:36.121Z,16.00
2022-08-22T05:37:36.129Z,16.04
2022-08-22T05:38:36.101Z,16.09
2022-08-22T05:39:36.111Z,16.13
2022-08-22T05:40:36.093Z,16.17
2022-08-22T05:41:36.069Z,16.24
2022-08-22T05:42:36.062Z,16.28
2022-08-22T05:43:36.061Z,16.32
2022-08-22T05:44:36.040Z,16.36
2022-08-22T05:45:36.083Z,16.41
2022-08-22T05:46:36.011Z,16.46
2022-08-22T05:47:36.001Z,16.51
2022-08-22T05:48:35.991Z,16.58
2022-08-22T05:49:35.971Z,16.64
2022-08-22T05:50:35.973Z,16.69
2022-08-22T05:51:35.975Z,16.75
2022-08-22T05:52:35.951Z,16.81
2022-08-22T05:53:35.935Z,16.86
2022-08-22T05:54:35.923Z,16.93
2022-08-22T05:55:35.902Z,16.99
2022-08-22T05:56:35.902Z,17.06
2022-08-22T05:57:36.129Z,17.12
2022-08-22T05:58:35.873Z,17.22
2022-08-22T05:59:35.871Z,17.31
2022-08-22T06:00:35.862Z,17.41
2022-08-22T06:01:35.893Z,17.51
2022-08-22T06:02:35.831Z,17.57
2022-08-22T06:03:35.833Z,17.68
2022-08-22T06:04:35.814Z,17.79
2022-08-22T06:05:35.793Z,17.86
2022-08-22T06:06:35.785Z,17.95
2022-08-22T06:07:35.779Z,18.03
2022-08-22T06:08:35.784Z,18.08
2022-08-22T06:09:35.875Z,18.19
2022-08-22T06:10:35.742Z,18.26
2022-08-22T06:11:35.735Z,18.38
2022-08-22T06:12:35.724Z,18.47
2022-08-22T06:13:35.717Z,18.65
2022-08-22T06:14:35.715Z,18.74
2022-08-22T06:15:35.688Z,18.88
2022-08-22T06:16:35.674Z,19.08
2022-08-22T06:17:35.665Z,19.18
2022-08-22T06:18:35.656Z,19.40
2022-08-22T06:19:35.666Z,19.69
2022-08-22T06:20:35.635Z,20.13
2022-08-22T06:21:39.339Z,20.77
2022-08-22T06:22:35.606Z,21.52
2022-08-22T06:23:35.594Z,22.15
2022-08-22T06:24:35.587Z,22.83
2022-08-22T06:25:35.596Z,23.37
2022-08-22T06:26:35.566Z,23.66
2022-08-22T06:27:35.554Z,23.99
2022-08-22T06:28:35.545Z,24.33
2022-08-22T06:29:35.526Z,24.47
2022-08-22T06:30:35.516Z,24.81
2022-08-22T06:31:35.548Z,25.22
2022-08-22T06:32:58.881Z,25.25
2022-08-22T06:33:36.487Z,25.50
2022-08-22T06:34:35.477Z,26.03
2022-08-22T06:35:35.459Z,26.21
2022-08-22T06:36:35.486Z,26.33
2022-08-22T06:37:35.447Z,26.45
2022-08-22T06:38:35.428Z,26.62
2022-08-22T06:39:35.419Z,26.48
2022-08-22T06:40:35.409Z,26.83
2022-08-22T06:41:35.402Z,26.65
2022-08-22T06:42:35.408Z,26.78
2022-08-22T06:43:35.380Z,26.73
2022-08-22T06:44:35.360Z,26.78
2022-08-22T06:45:35.350Z,27.12
2022-08-22T06:46:35.340Z,27.51
2022-08-22T06:47:35.351Z,27.82
2022-08-22T06:48:35.337Z,28.20
2022-08-22T06:49:35.309Z,28.44
2022-08-22T06:50:35.334Z,28.45
2022-08-22T06:51:35.283Z,28.41
2022-08-22T06:52:35.281Z,28.54
2022-08-22T06:53:35.292Z,28.60
2022-08-22T06:54:35.262Z,28.32
2022-08-22T06:55:35.244Z,27.35
2022-08-22T06:56:35.233Z,26.60
2022-08-22T06:57:35.223Z,26.40
2022-08-22T06:58:35.234Z,26.56
2022-08-22T06:59:35.224Z,26.85
2022-08-22T07:00:35.195Z,27.54
2022-08-22T07:01:35.233Z,27.74
2022-08-22T07:02:35.175Z,28.22
2022-08-22T07:03:35.156Z,28.56
2022-08-22T07:04:35.175Z,28.20
2022-08-22T07:05:35.136Z,27.48
2022-08-22T07:06:35.135Z,27.11
2022-08-22T07:07:35.128Z,26.70
2022-08-22T07:08:38.575Z,27.05
2022-08-22T07:09:35.099Z,27.78
2022-08-22T07:10:35.118Z,28.44
2022-08-22T07:11:35.077Z,28.72
2022-08-22T07:12:35.068Z,28.67
2022-08-22T07:13:35.049Z,28.38
2022-08-22T07:14:35.048Z,28.19
2022-08-22T07:15:35.027Z,28.08
2022-08-22T07:16:35.040Z,28.04
2022-08-22T07:17:38.893Z,28.05
2022-08-22T07:18:35.999Z,28.19
2022-08-22T07:19:34.989Z,28.44
2022-08-22T07:20:34.980Z,28.63
2022-08-22T07:21:36.233Z,28.74
2022-08-22T07:22:34.951Z,28.60
2022-08-22T07:23:34.939Z,28.35
2022-08-22T07:24:34.939Z,28.29
2022-08-22T07:25:34.921Z,28.48
2022-08-22T07:26:34.922Z,28.33
2022-08-22T07:27:34.922Z,28.44
2022-08-22T07:28:37.307Z,28.38
2022-08-22T07:29:35.880Z,28.22
2022-08-22T07:30:34.872Z,28.32
2022-08-22T07:31:34.864Z,28.29
2022-08-22T07:32:34.853Z,28.22
2022-08-22T07:33:34.862Z,28.27
2022-08-22T07:34:34.834Z,28.48
2022-08-22T07:35:34.820Z,29.47
2022-08-22T07:36:34.814Z,30.24
2022-08-22T07:37:34.797Z,30.78
2022-08-22T07:38:34.836Z,31.20
2022-08-22T07:39:34.775Z,31.21
2022-08-22T07:40:34.774Z,31.44
2022-08-22T07:41:34.755Z,31.39
2022-08-22T07:42:34.754Z,31.18
2022-08-22T07:43:34.726Z,31.89
2022-08-22T07:44:34.755Z,32.08
2022-08-22T07:45:34.707Z,32.15
2022-08-22T07:46:34.719Z,32.30
2022-08-22T07:47:34.688Z,32.46
2022-08-22T07:48:38.275Z,32.63
2022-08-22T07:49:35.688Z,33.02
2022-08-22T07:50:34.669Z,33.32
2022-08-22T07:51:34.673Z,33.23
2022-08-22T07:52:34.641Z,32.87
2022-08-22T07:53:34.620Z,32.86
2022-08-22T07:54:34.622Z,32.96
2022-08-22T07:55:34.630Z,33.02
2022-08-22T07:56:35.600Z,32.86
2022-08-22T07:57:34.589Z,33.08
2022-08-22T07:58:34.593Z,33.67
2022-08-22T07:59:34.561Z,33.92
2022-08-22T08:00:34.575Z,33.83
2022-08-22T08:01:34.596Z,33.57
2022-08-22T08:02:34.533Z,33.36
2022-08-22T08:03:34.523Z,33.39
2022-08-22T08:04:39.534Z,33.62
2022-08-22T08:05:35.502Z,34.02
2022-08-22T08:06:34.496Z,34.14
2022-08-22T08:07:34.510Z,34.14
2022-08-22T08:08:34.474Z,34.18
2022-08-22T08:09:34.464Z,34.02
2022-08-22T08:10:34.457Z,33.99
2022-08-22T08:11:34.445Z,34.05
2022-08-22T08:12:34.437Z,34.27
2022-08-22T08:13:34.446Z,34.40
2022-08-22T08:14:34.426Z,34.45
2022-08-22T08:15:34.408Z,33.68
2022-08-22T08:16:34.396Z,33.24
2022-08-22T08:17:34.388Z,32.82
2022-08-22T08:18:34.382Z,31.92
2022-08-22T08:19:34.390Z,31.22
2022-08-22T08:20:34.355Z,31.05
2022-08-22T08:21:34.339Z,30.97
2022-08-22T08:22:34.338Z,30.62
2022-08-22T08:23:37.913Z,30.48
2022-08-22T08:24:39.980Z,30.61
2022-08-22T08:25:35.299Z,30.90
2022-08-22T08:26:34.302Z,31.09
2022-08-22T08:27:34.313Z,31.25
2022-08-22T08:28:34.288Z,31.65
2022-08-22T08:29:34.250Z,31.58
2022-08-22T08:30:34.279Z,31.47
2022-08-22T08:31:34.244Z,31.58
2022-08-22T08:32:34.231Z,31.97
2022-08-22T08:33:34.212Z,32.53
2022-08-22T08:34:35.256Z,33.04
2022-08-22T08:35:42.341Z,32.68
2022-08-22T08:36:35.230Z,32.08
2022-08-22T08:37:34.182Z,31.90
2022-08-22T08:38:34.173Z,31.96
2022-08-22T08:39:35.363Z,32.36
2022-08-22T08:40:34.152Z,32.41
2022-08-22T08:41:34.182Z,32.29
2022-08-22T08:42:34.123Z,32.07
2022-08-22T08:43:34.124Z,32.15
2022-08-22T08:44:34.113Z,32.52
2022-08-22T08:45:34.095Z,32.95
2022-08-22T08:46:34.113Z,33.39
2022-08-22T08:47:34.096Z,33.71
2022-08-22T08:48:34.075Z,33.69
2022-08-22T08:49:34.056Z,33.36
2022-08-22T08:50:34.048Z,33.27
2022-08-22T08:51:34.036Z,33.57
2022-08-22T08:52:34.037Z,33.73
2022-08-22T08:53:34.038Z,33.76
2022-08-22T08:54:34.017Z,33.98
2022-08-22T08:55:33.999Z,34.29
2022-08-22T08:56:33.988Z,34.70
2022-08-22T08:57:33.970Z,34.95
2022-08-22T08:58:33.972Z,35.15
2022-08-22T08:59:33.990Z,35.14
2022-08-22T09:00:33.949Z,34.86
2022-08-22T09:01:33.986Z,34.89
2022-08-22T09:02:33.941Z,34.99
2022-08-22T09:03:33.920Z,34.97
2022-08-22T09:04:33.919Z,34.64
2022-08-22T09:05:33.910Z,34.74
2022-08-22T09:06:33.891Z,34.38
2022-08-22T09:07:33.871Z,34.25
2022-08-22T09:08:33.872Z,34.30
2022-08-22T09:09:33.862Z,34.36
2022-08-22T09:10:33.850Z,34.38
2022-08-22T09:11:33.860Z,33.92
2022-08-22T09:12:33.833Z,33.89
2022-08-22T09:13:34.531Z,34.05
2022-08-22T09:14:34.814Z,33.96
2022-08-22T09:15:37.383Z,33.62
2022-08-22T09:16:34.811Z,33.22
2022-08-22T09:17:33.774Z,33.09
2022-08-22T09:18:33.775Z,33.36
2022-08-22T09:19:33.764Z,33.47
2022-08-22T09:20:33.754Z,33.80
2022-08-22T09:21:33.735Z,34.11
2022-08-22T09:22:50.206Z,34.06
2022-08-22T09:23:34.726Z,33.73
2022-08-22T09:24:33.714Z,33.77
2022-08-22T09:26:34.695Z,33.19
2022-08-22T09:27:33.708Z,32.87
2022-08-22T09:28:33.697Z,32.78
2022-08-22T09:29:33.657Z,32.73
2022-08-22T09:30:33.658Z,32.40
2022-08-22T09:31:47.928Z,32.33
2022-08-22T09:32:34.647Z,32.53
2022-08-22T09:33:33.619Z,32.80
2022-08-22T09:34:33.627Z,33.04
2022-08-22T09:35:33.600Z,33.32
2022-08-22T09:36:33.591Z,33.40
2022-08-22T09:37:33.582Z,33.30
2022-08-22T09:38:33.569Z,32.86
2022-08-22T09:39:33.580Z,32.40
2022-08-22T09:40:33.553Z,32.21
2022-08-22T09:41:33.541Z,32.38
2022-08-22T09:42:33.530Z,32.86
2022-08-22T09:43:33.538Z,33.24
2022-08-22T09:44:33.511Z,33.28
2022-08-22T09:45:34.511Z,33.20
2022-08-22T09:46:37.030Z,33.12
2022-08-22T09:47:33.472Z,33.07
2022-08-22T09:48:33.463Z,32.73
2022-08-22T09:49:33.456Z,32.67
2022-08-22T09:50:33.463Z,32.46
2022-08-22T09:51:33.533Z,32.27
2022-08-22T09:52:34.431Z,32.08
2022-08-22T09:53:33.424Z,31.92
2022-08-22T09:54:33.403Z,31.71
2022-08-22T09:55:35.142Z,31.59
2022-08-22T09:56:33.406Z,31.28
2022-08-22T09:57:33.373Z,31.28
2022-08-22T09:58:35.697Z,31.29
2022-08-22T09:59:33.658Z,31.12
2022-08-22T10:00:33.340Z,30.99
2022-08-22T10:01:33.429Z,30.87
2022-08-22T10:02:33.327Z,30.53
2022-08-22T10:03:33.782Z,30.02
2022-08-22T10:04:33.288Z,29.69
2022-08-22T10:05:41.063Z,29.50
2022-08-22T10:06:34.295Z,29.34
2022-08-22T10:07:33.266Z,29.20
2022-08-22T10:08:33.249Z,29.23
2022-08-22T10:09:33.258Z,29.23
2022-08-22T10:10:33.230Z,29.29
2022-08-22T10:11:33.226Z,29.44
2022-08-22T10:12:36.242Z,29.65
2022-08-22T10:13:34.136Z,29.69
2022-08-22T10:14:33.193Z,29.47
2022-08-22T10:15:33.179Z,29.35
2022-08-22T10:16:33.161Z,29.27
2022-08-22T10:17:33.161Z,29.08
2022-08-22T10:18:33.161Z,28.98
2022-08-22T10:19:33.145Z,28.97
2022-08-22T10:20:33.124Z,29.16
2022-08-22T10:21:33.111Z,29.44
2022-08-22T10:22:33.130Z,29.79
2022-08-22T10:23:33.090Z,29.97
2022-08-22T10:24:33.102Z,29.97
2022-08-22T10:25:33.071Z,29.66
2022-08-22T10:26:37.860Z,29.31
2022-08-22T10:27:34.043Z,29.07
2022-08-22T10:28:33.043Z,28.93
2022-08-22T10:29:33.032Z,28.76
2022-08-22T10:30:33.024Z,28.70
2022-08-22T10:31:33.022Z,28.81
2022-08-22T10:32:32.984Z,29.07
2022-08-22T10:33:32.982Z,29.16
2022-08-22T10:34:32.965Z,29.22
2022-08-22T10:35:33.880Z,29.34
2022-08-22T10:36:32.947Z,29.42
2022-08-22T10:37:32.936Z,29.54
2022-08-22T10:38:36.067Z,29.60
2022-08-22T10:39:33.916Z,29.76
2022-08-22T10:40:32.897Z,29.69
2022-08-22T10:41:32.916Z,29.73
2022-08-22T10:42:35.787Z,29.75
2022-08-22T10:43:32.867Z,29.76
2022-08-22T10:44:32.862Z,29.90
2022-08-22T10:45:36.696Z,29.97
2022-08-22T10:46:32.829Z,30.05
2022-08-22T10:47:32.880Z,30.13
2022-08-22T10:48:32.817Z,30.19
2022-08-22T10:49:32.808Z,30.23
2022-08-22T10:50:32.799Z,30.15
2022-08-22T10:51:32.790Z,30.02
2022-08-22T10:52:32.771Z,30.00
2022-08-22T10:53:32.810Z,29.90
2022-08-22T10:54:32.750Z,29.87
2022-08-22T10:55:32.750Z,29.94
2022-08-22T10:56:32.721Z,30.00
2022-08-22T10:57:32.720Z,30.08
2022-08-22T10:58:32.701Z,30.05
2022-08-22T10:59:32.722Z,30.21
2022-08-22T11:00:32.718Z,30.30
2022-08-22T11:01:38.075Z,30.35
2022-08-22T11:02:33.671Z,30.43
2022-08-22T11:03:32.652Z,30.63
2022-08-22T11:04:32.643Z,30.84
2022-08-22T11:05:32.662Z,30.83
2022-08-22T11:06:32.613Z,30.47
2022-08-22T11:07:32.614Z,30.27
2022-08-22T11:08:33.089Z,30.18
2022-08-22T11:09:36.924Z,30.30
2022-08-22T11:10:32.585Z,30.50
2022-08-22T11:11:33.041Z,30.72
2022-08-22T11:12:35.117Z,30.91
2022-08-22T11:13:32.545Z,30.87
2022-08-22T11:14:32.525Z,30.92
2022-08-22T11:15:34.869Z,30.91
2022-08-22T11:16:36.731Z,30.78
2022-08-22T11:17:39.756Z,30.84
2022-08-22T11:18:33.487Z,30.94
2022-08-22T11:19:32.481Z,30.81
2022-08-22T11:20:32.506Z,30.34
2022-08-22T11:21:32.458Z,30.15
2022-08-22T11:22:32.467Z,30.08
2022-08-22T11:23:32.437Z,30.15
2022-08-22T11:24:35.784Z,30.23
2022-08-22T11:25:38.875Z,30.37
2022-08-22T11:26:35.736Z,30.27
2022-08-22T11:27:38.171Z,30.25
2022-08-22T11:28:33.419Z,30.16
2022-08-22T11:29:32.369Z,30.21
2022-08-22T11:30:36.459Z,30.23
2022-08-22T11:31:36.471Z,30.35
2022-08-22T11:32:32.330Z,30.70
2022-08-22T11:33:46.411Z,30.92
2022-08-22T11:34:33.311Z,31.18
2022-08-22T11:35:32.302Z,31.42
2022-08-22T11:36:32.292Z,31.56
2022-08-22T11:37:42.201Z,31.42
2022-08-22T11:38:33.291Z,31.40
2022-08-22T11:39:32.262Z,31.44
2022-08-22T11:40:32.303Z,31.49
2022-08-22T11:41:32.252Z,31.36
2022-08-22T11:42:32.232Z,31.05
2022-08-22T11:43:32.226Z,30.72
2022-08-22T11:44:32.256Z,30.69
2022-08-22T11:45:32.204Z,30.53
2022-08-22T11:46:32.210Z,30.35
2022-08-22T11:47:32.186Z,30.37
2022-08-22T11:48:32.164Z,30.48
2022-08-22T11:49:32.887Z,30.73
2022-08-22T11:50:32.217Z,31.00
2022-08-22T11:51:32.171Z,30.96
2022-08-22T11:52:32.123Z,30.83
2022-08-22T11:53:32.134Z,30.53
2022-08-22T11:54:32.104Z,30.50
2022-08-22T11:55:33.262Z,30.69
2022-08-22T11:56:32.107Z,30.84
2022-08-22T11:57:32.066Z,30.83
2022-08-22T11:58:32.063Z,30.73
2022-08-22T11:59:32.540Z,30.73
2022-08-22T12:00:32.039Z,30.75
2022-08-22T12:01:34.504Z,30.88
2022-08-22T12:02:32.044Z,31.07
2022-08-22T12:03:32.009Z,31.25
2022-08-22T12:04:32.029Z,31.33
2022-08-22T12:05:31.988Z,31.42
2022-08-22T12:06:31.969Z,31.54
2022-08-22T12:07:32.000Z,31.69
2022-08-22T12:08:31.958Z,31.74
2022-08-22T12:09:31.940Z,31.69
2022-08-22T12:10:31.932Z,31.59
2022-08-22T12:11:31.919Z,31.55
2022-08-22T12:12:31.902Z,31.58
2022-08-22T12:13:34.109Z,31.65
2022-08-22T12:14:31.900Z,31.64
2022-08-22T12:15:33.435Z,31.61
2022-08-22T12:16:31.862Z,31.55
2022-08-22T12:17:55.484Z,31.47
2022-08-22T12:18:32.863Z,31.31
2022-08-22T12:19:32.910Z,31.05
2022-08-22T12:20:31.822Z,30.69
2022-08-22T12:21:31.814Z,30.46
2022-08-22T12:22:31.849Z,30.39
2022-08-22T12:23:43.279Z,30.39
2022-08-22T12:24:32.804Z,30.24
2022-08-22T12:25:31.764Z,30.16
2022-08-22T12:26:31.755Z,30.09
2022-08-22T12:27:31.745Z,30.05
2022-08-22T12:28:31.752Z,29.94
2022-08-22T12:29:33.802Z,29.90
2022-08-22T12:30:32.741Z,30.03
2022-08-22T12:31:31.706Z,30.03
2022-08-22T12:32:31.695Z,29.98
2022-08-22T12:33:31.703Z,29.88
2022-08-22T12:34:31.667Z,29.86
2022-08-22T12:35:31.667Z,29.81
2022-08-22T12:36:31.667Z,29.69
2022-08-22T12:37:31.638Z,29.49
2022-08-22T12:38:34.823Z,29.24
2022-08-22T12:39:32.618Z,29.23
2022-08-22T12:40:31.662Z,29.14
2022-08-22T12:41:35.161Z,29.27
2022-08-22T12:42:31.607Z,29.45
2022-08-22T12:43:32.237Z,29.61
2022-08-22T12:44:31.569Z,29.60
2022-08-22T12:45:31.562Z,29.60
2022-08-22T12:46:31.541Z,29.61
2022-08-22T12:47:32.103Z,29.71
2022-08-22T12:48:31.551Z,29.82
2022-08-22T12:49:31.513Z,29.94